sensor_id;sensor_type;location;lat;lon;timestamp;temperature;humidity
74968;SHT30;63523;51.880;12.630;2023-08-21T00:01:55;20.03;81.35
74968;SHT30;63523;51.880;12.630;2023-08-21T00:04:21;19.97;81.31
74968;SHT30;63523;51.880;12.630;2023-08-21T00:06:46;19.91;81.49
74968;SHT30;63523;51.880;12.630;2023-08-21T00:09:12;19.90;81.39
74968;SHT30;63523;51.880;12.630;2023-08-21T00:11:37;19.94;81.18
74968;SHT30;63523;51.880;12.630;2023-08-21T00:14:02;19.98;81.02
74968;SHT30;63523;51.880;12.630;2023-08-21T00:16:27;20.10;80.75
74968;SHT30;63523;51.880;12.630;2023-08-21T00:18:54;20.15;80.35
74968;SHT30;63523;51.880;12.630;2023-08-21T00:21:19;20.24;80.56
74968;SHT30;63523;51.880;12.630;2023-08-21T00:23:45;20.29;80.64
74968;SHT30;63523;51.880;12.630;2023-08-21T00:26:11;20.32;80.47
74968;SHT30;63523;51.880;12.630;2023-08-21T00:28:36;20.35;80.67
74968;SHT30;63523;51.880;12.630;2023-08-21T00:31:03;20.39;80.61
74968;SHT30;63523;51.880;12.630;2023-08-21T00:33:30;20.46;80.41
74968;SHT30;63523;51.880;12.630;2023-08-21T00:35:56;20.46;79.73
74968;SHT30;63523;51.880;12.630;2023-08-21T00:38:21;20.46;80.50
74968;SHT30;63523;51.880;12.630;2023-08-21T00:40:47;20.39;80.83
74968;SHT30;63523;51.880;12.630;2023-08-21T00:43:12;20.34;80.66
74968;SHT30;63523;51.880;12.630;2023-08-21T00:45:41;20.32;80.42
74968;SHT30;63523;51.880;12.630;2023-08-21T00:48:08;20.31;80.60
74968;SHT30;63523;51.880;12.630;2023-08-21T00:50:34;20.31;80.39
74968;SHT30;63523;51.880;12.630;2023-08-21T00:53:00;20.26;80.16
74968;SHT30;63523;51.880;12.630;2023-08-21T00:55:26;20.26;80.07
74968;SHT30;63523;51.880;12.630;2023-08-21T00:57:51;20.25;79.87
74968;SHT30;63523;51.880;12.630;2023-08-21T01:00:16;20.26;79.81
74968;SHT30;63523;51.880;12.630;2023-08-21T01:02:42;20.31;79.92
74968;SHT30;63523;51.880;12.630;2023-08-21T01:05:08;20.42;80.19
74968;SHT30;63523;51.880;12.630;2023-08-21T01:07:40;20.46;80.83
74968;SHT30;63523;51.880;12.630;2023-08-21T01:10:20;20.49;81.48
74968;SHT30;63523;51.880;12.630;2023-08-21T01:12:57;20.49;81.28
74968;SHT30;63523;51.880;12.630;2023-08-21T01:15:26;20.52;81.09
74968;SHT30;63523;51.880;12.630;2023-08-21T01:17:52;20.45;80.77
74968;SHT30;63523;51.880;12.630;2023-08-21T01:20:18;20.48;80.38
74968;SHT30;63523;51.880;12.630;2023-08-21T01:22:44;20.44;80.25
74968;SHT30;63523;51.880;12.630;2023-08-21T01:25:12;20.44;80.60
74968;SHT30;63523;51.880;12.630;2023-08-21T01:27:40;20.44;80.76
74968;SHT30;63523;51.880;12.630;2023-08-21T01:30:07;20.45;80.34
74968;SHT30;63523;51.880;12.630;2023-08-21T01:32:41;20.45;80.63
74968;SHT30;63523;51.880;12.630;2023-08-21T01:35:09;20.45;80.70
74968;SHT30;63523;51.880;12.630;2023-08-21T01:37:35;20.48;80.57
74968;SHT30;63523;51.880;12.630;2023-08-21T01:40:01;20.46;80.45
74968;SHT30;63523;51.880;12.630;2023-08-21T01:42:26;20.45;80.08
74968;SHT30;63523;51.880;12.630;2023-08-21T01:44:52;20.39;80.21
74968;SHT30;63523;51.880;12.630;2023-08-21T01:47:17;20.39;80.81
74968;SHT30;63523;51.880;12.630;2023-08-21T01:49:42;20.31;81.00
74968;SHT30;63523;51.880;12.630;2023-08-21T01:52:07;20.31;81.19
74968;SHT30;63523;51.880;12.630;2023-08-21T01:54:33;20.34;81.01
74968;SHT30;63523;51.880;12.630;2023-08-21T01:56:58;20.39;80.68
74968;SHT30;63523;51.880;12.630;2023-08-21T01:59:24;20.44;80.64
74968;SHT30;63523;51.880;12.630;2023-08-21T02:01:49;20.41;80.64
74968;SHT30;63523;51.880;12.630;2023-08-21T02:04:15;20.41;80.98
74968;SHT30;63523;51.880;12.630;2023-08-21T02:06:40;20.35;80.69
74968;SHT30;63523;51.880;12.630;2023-08-21T02:09:05;20.36;80.64
74968;SHT30;63523;51.880;12.630;2023-08-21T02:11:31;20.39;80.97
74968;SHT30;63523;51.880;12.630;2023-08-21T02:13:57;20.32;80.83
74968;SHT30;63523;51.880;12.630;2023-08-21T02:16:22;20.31;80.75
74968;SHT30;63523;51.880;12.630;2023-08-21T02:18:48;20.32;81.30
74968;SHT30;63523;51.880;12.630;2023-08-21T02:21:13;20.31;80.56
74968;SHT30;63523;51.880;12.630;2023-08-21T02:23:38;20.35;80.44
74968;SHT30;63523;51.880;12.630;2023-08-21T02:26:04;20.41;79.92
74968;SHT30;63523;51.880;12.630;2023-08-21T02:28:29;20.52;79.09
74968;SHT30;63523;51.880;12.630;2023-08-21T02:30:55;20.59;78.73
74968;SHT30;63523;51.880;12.630;2023-08-21T02:33:20;20.62;78.88
74968;SHT30;63523;51.880;12.630;2023-08-21T02:35:45;20.69;77.99
74968;SHT30;63523;51.880;12.630;2023-08-21T02:38:10;20.73;77.46
74968;SHT30;63523;51.880;12.630;2023-08-21T02:40:36;20.89;76.94
74968;SHT30;63523;51.880;12.630;2023-08-21T02:43:02;20.98;77.29
74968;SHT30;63523;51.880;12.630;2023-08-21T02:45:27;20.98;78.05
74968;SHT30;63523;51.880;12.630;2023-08-21T02:47:52;20.98;77.88
74968;SHT30;63523;51.880;12.630;2023-08-21T02:50:18;20.97;77.87
74968;SHT30;63523;51.880;12.630;2023-08-21T02:52:43;20.96;77.91
74968;SHT30;63523;51.880;12.630;2023-08-21T02:55:09;20.94;78.36
74968;SHT30;63523;51.880;12.630;2023-08-21T02:57:34;20.97;78.85
74968;SHT30;63523;51.880;12.630;2023-08-21T03:00:00;20.93;77.83
74968;SHT30;63523;51.880;12.630;2023-08-21T03:02:25;20.94;78.22
74968;SHT30;63523;51.880;12.630;2023-08-21T03:04:50;20.93;78.97
74968;SHT30;63523;51.880;12.630;2023-08-21T03:07:16;20.91;79.63
74968;SHT30;63523;51.880;12.630;2023-08-21T03:09:44;20.89;79.26
74968;SHT30;63523;51.880;12.630;2023-08-21T03:12:09;20.84;79.01
74968;SHT30;63523;51.880;12.630;2023-08-21T03:14:35;20.80;79.11
74968;SHT30;63523;51.880;12.630;2023-08-21T03:17:00;20.76;79.04
74968;SHT30;63523;51.880;12.630;2023-08-21T03:19:26;20.75;78.93
74968;SHT30;63523;51.880;12.630;2023-08-21T03:21:51;20.75;78.20
74968;SHT30;63523;51.880;12.630;2023-08-21T03:24:17;20.77;78.03
74968;SHT30;63523;51.880;12.630;2023-08-21T03:26:42;20.77;77.90
74968;SHT30;63523;51.880;12.630;2023-08-21T03:29:07;20.83;78.01
74968;SHT30;63523;51.880;12.630;2023-08-21T03:31:33;20.89;78.19
74968;SHT30;63523;51.880;12.630;2023-08-21T03:33:58;20.96;78.23
74968;SHT30;63523;51.880;12.630;2023-08-21T03:36:24;20.98;78.28
74968;SHT30;63523;51.880;12.630;2023-08-21T03:38:59;21.00;78.28
74968;SHT30;63523;51.880;12.630;2023-08-21T03:41:25;21.03;78.39
74968;SHT30;63523;51.880;12.630;2023-08-21T03:43:50;21.04;78.72
74968;SHT30;63523;51.880;12.630;2023-08-21T03:46:16;21.11;78.45
74968;SHT30;63523;51.880;12.630;2023-08-21T03:48:41;21.14;78.23
74968;SHT30;63523;51.880;12.630;2023-08-21T03:51:06;21.14;78.89
74968;SHT30;63523;51.880;12.630;2023-08-21T03:53:32;21.06;79.04
74968;SHT30;63523;51.880;12.630;2023-08-21T03:55:57;21.01;78.77
74968;SHT30;63523;51.880;12.630;2023-08-21T03:58:22;21.07;78.23
74968;SHT30;63523;51.880;12.630;2023-08-21T04:00:47;21.10;78.27
74968;SHT30;63523;51.880;12.630;2023-08-21T04:03:13;21.11;78.10
74968;SHT30;63523;51.880;12.630;2023-08-21T04:05:38;21.06;78.17
74968;SHT30;63523;51.880;12.630;2023-08-21T04:08:04;21.06;77.99
74968;SHT30;63523;51.880;12.630;2023-08-21T04:10:29;21.04;78.06
74968;SHT30;63523;51.880;12.630;2023-08-21T04:12:54;21.08;77.66
74968;SHT30;63523;51.880;12.630;2023-08-21T04:15:20;21.06;77.68
74968;SHT30;63523;51.880;12.630;2023-08-21T04:17:45;21.10;77.89
74968;SHT30;63523;51.880;12.630;2023-08-21T04:20:10;21.12;77.07
74968;SHT30;63523;51.880;12.630;2023-08-21T04:22:36;21.11;77.24
74968;SHT30;63523;51.880;12.630;2023-08-21T04:25:01;21.07;78.07
74968;SHT30;63523;51.880;12.630;2023-08-21T04:27:26;21.06;77.92
74968;SHT30;63523;51.880;12.630;2023-08-21T04:29:53;21.00;78.25
74968;SHT30;63523;51.880;12.630;2023-08-21T04:32:18;21.00;77.85
74968;SHT30;63523;51.880;12.630;2023-08-21T04:34:43;20.98;77.86
74968;SHT30;63523;51.880;12.630;2023-08-21T04:37:09;20.96;77.72
74968;SHT30;63523;51.880;12.630;2023-08-21T04:39:34;20.96;77.96
74968;SHT30;63523;51.880;12.630;2023-08-21T04:42:01;20.97;78.58
74968;SHT30;63523;51.880;12.630;2023-08-21T04:44:27;20.98;78.78
74968;SHT30;63523;51.880;12.630;2023-08-21T04:46:52;20.97;79.02
74968;SHT30;63523;51.880;12.630;2023-08-21T04:49:17;21.07;79.21
74968;SHT30;63523;51.880;12.630;2023-08-21T04:51:43;21.07;78.97
74968;SHT30;63523;51.880;12.630;2023-08-21T04:54:08;21.08;79.53
74968;SHT30;63523;51.880;12.630;2023-08-21T04:56:33;21.08;78.75
74968;SHT30;63523;51.880;12.630;2023-08-21T04:58:58;21.11;79.23
74968;SHT30;63523;51.880;12.630;2023-08-21T05:01:24;21.08;78.27
74968;SHT30;63523;51.880;12.630;2023-08-21T05:03:50;21.18;77.88
74968;SHT30;63523;51.880;12.630;2023-08-21T05:06:15;21.34;77.08
74968;SHT30;63523;51.880;12.630;2023-08-21T05:08:40;21.37;77.23
74968;SHT30;63523;51.880;12.630;2023-08-21T05:11:06;21.52;76.55
74968;SHT30;63523;51.880;12.630;2023-08-21T05:13:31;21.59;76.28
74968;SHT30;63523;51.880;12.630;2023-08-21T05:15:57;21.59;76.98
74968;SHT30;63523;51.880;12.630;2023-08-21T05:18:24;21.48;78.06
74968;SHT30;63523;51.880;12.630;2023-08-21T05:20:52;21.42;79.03
74968;SHT30;63523;51.880;12.630;2023-08-21T05:23:18;21.37;79.12
74968;SHT30;63523;51.880;12.630;2023-08-21T05:25:43;21.34;79.66
74968;SHT30;63523;51.880;12.630;2023-08-21T05:28:09;21.35;79.48
74968;SHT30;63523;51.880;12.630;2023-08-21T05:30:35;21.35;78.82
74968;SHT30;63523;51.880;12.630;2023-08-21T05:33:01;21.38;78.62
74968;SHT30;63523;51.880;12.630;2023-08-21T05:35:26;21.43;78.86
74968;SHT30;63523;51.880;12.630;2023-08-21T05:37:51;21.48;78.79
74968;SHT30;63523;51.880;12.630;2023-08-21T05:40:17;21.55;78.61
74968;SHT30;63523;51.880;12.630;2023-08-21T05:42:42;21.69;78.35
74968;SHT30;63523;51.880;12.630;2023-08-21T05:45:07;21.89;77.78
74968;SHT30;63523;51.880;12.630;2023-08-21T05:47:33;21.97;77.01
74968;SHT30;63523;51.880;12.630;2023-08-21T05:49:59;22.06;77.14
74968;SHT30;63523;51.880;12.630;2023-08-21T05:52:24;22.15;77.02
74968;SHT30;63523;51.880;12.630;2023-08-21T05:54:49;22.22;77.10
74968;SHT30;63523;51.880;12.630;2023-08-21T05:57:15;22.30;76.99
74968;SHT30;63523;51.880;12.630;2023-08-21T05:59:45;22.37;76.32
74968;SHT30;63523;51.880;12.630;2023-08-21T06:02:11;22.49;76.69
74968;SHT30;63523;51.880;12.630;2023-08-21T06:04:39;22.53;75.87
74968;SHT30;63523;51.880;12.630;2023-08-21T06:07:05;22.55;75.73
74968;SHT30;63523;51.880;12.630;2023-08-21T06:09:30;22.60;76.02
74968;SHT30;63523;51.880;12.630;2023-08-21T06:11:59;22.66;75.73
74968;SHT30;63523;51.880;12.630;2023-08-21T06:14:25;22.72;75.85
74968;SHT30;63523;51.880;12.630;2023-08-21T06:16:56;22.82;76.22
74968;SHT30;63523;51.880;12.630;2023-08-21T06:19:21;22.96;76.24
74968;SHT30;63523;51.880;12.630;2023-08-21T06:21:46;23.07;75.37
74968;SHT30;63523;51.880;12.630;2023-08-21T06:24:12;23.18;75.83
74968;SHT30;63523;51.880;12.630;2023-08-21T06:26:37;23.30;75.08
74968;SHT30;63523;51.880;12.630;2023-08-21T06:29:02;23.40;75.09
74968;SHT30;63523;51.880;12.630;2023-08-21T06:31:27;23.55;74.43
74968;SHT30;63523;51.880;12.630;2023-08-21T06:33:53;23.65;74.41
74968;SHT30;63523;51.880;12.630;2023-08-21T06:36:19;23.76;73.36
74968;SHT30;63523;51.880;12.630;2023-08-21T06:38:44;23.87;72.94
74968;SHT30;63523;51.880;12.630;2023-08-21T06:41:09;24.00;71.54
74968;SHT30;63523;51.880;12.630;2023-08-21T06:43:35;24.09;71.17
74968;SHT30;63523;51.880;12.630;2023-08-21T06:46:01;24.13;72.93
74968;SHT30;63523;51.880;12.630;2023-08-21T06:48:26;24.07;73.30
74968;SHT30;63523;51.880;12.630;2023-08-21T06:50:52;24.11;74.10
74968;SHT30;63523;51.880;12.630;2023-08-21T06:53:17;24.10;73.37
74968;SHT30;63523;51.880;12.630;2023-08-21T06:55:44;24.11;73.16
74968;SHT30;63523;51.880;12.630;2023-08-21T06:58:10;24.20;73.05
74968;SHT30;63523;51.880;12.630;2023-08-21T07:00:36;24.28;72.83
74968;SHT30;63523;51.880;12.630;2023-08-21T07:03:01;24.27;72.53
74968;SHT30;63523;51.880;12.630;2023-08-21T07:05:28;24.27;72.98
74968;SHT30;63523;51.880;12.630;2023-08-21T07:07:53;24.16;73.31
74968;SHT30;63523;51.880;12.630;2023-08-21T07:10:20;24.06;73.40
74968;SHT30;63523;51.880;12.630;2023-08-21T07:12:45;23.97;74.03
74968;SHT30;63523;51.880;12.630;2023-08-21T07:15:11;23.96;74.78
74968;SHT30;63523;51.880;12.630;2023-08-21T07:17:36;23.94;74.99
74968;SHT30;63523;51.880;12.630;2023-08-21T07:20:02;23.93;75.05
74968;SHT30;63523;51.880;12.630;2023-08-21T07:22:29;23.96;75.87
74968;SHT30;63523;51.880;12.630;2023-08-21T07:24:54;23.99;75.09
74968;SHT30;63523;51.880;12.630;2023-08-21T07:27:19;24.03;74.64
74968;SHT30;63523;51.880;12.630;2023-08-21T07:29:45;24.11;74.84
74968;SHT30;63523;51.880;12.630;2023-08-21T07:32:10;24.22;74.01
74968;SHT30;63523;51.880;12.630;2023-08-21T07:34:36;24.41;71.51
74968;SHT30;63523;51.880;12.630;2023-08-21T07:37:02;24.59;70.46
74968;SHT30;63523;51.880;12.630;2023-08-21T07:39:27;24.73;69.64
74968;SHT30;63523;51.880;12.630;2023-08-21T07:41:52;24.86;69.91
74968;SHT30;63523;51.880;12.630;2023-08-21T07:44:18;24.87;68.59
74968;SHT30;63523;51.880;12.630;2023-08-21T07:46:44;24.94;67.53
74968;SHT30;63523;51.880;12.630;2023-08-21T07:49:09;25.07;66.27
74968;SHT30;63523;51.880;12.630;2023-08-21T07:51:35;25.20;65.17
74968;SHT30;63523;51.880;12.630;2023-08-21T07:54:01;25.30;65.45
74968;SHT30;63523;51.880;12.630;2023-08-21T07:56:26;25.34;64.17
74968;SHT30;63523;51.880;12.630;2023-08-21T07:58:52;25.41;65.82
74968;SHT30;63523;51.880;12.630;2023-08-21T08:01:17;25.54;64.25
74968;SHT30;63523;51.880;12.630;2023-08-21T08:03:42;25.57;64.48
74968;SHT30;63523;51.880;12.630;2023-08-21T08:06:08;25.55;63.42
74968;SHT30;63523;51.880;12.630;2023-08-21T08:08:33;25.58;63.58
74968;SHT30;63523;51.880;12.630;2023-08-21T08:11:03;25.59;62.99
74968;SHT30;63523;51.880;12.630;2023-08-21T08:13:29;25.54;62.93
74968;SHT30;63523;51.880;12.630;2023-08-21T08:15:54;25.54;63.53
74968;SHT30;63523;51.880;12.630;2023-08-21T08:18:20;25.55;62.13
74968;SHT30;63523;51.880;12.630;2023-08-21T08:20:45;25.54;60.26
74968;SHT30;63523;51.880;12.630;2023-08-21T08:23:10;25.48;61.23
74968;SHT30;63523;51.880;12.630;2023-08-21T08:25:36;25.48;62.47
74968;SHT30;63523;51.880;12.630;2023-08-21T08:28:01;25.61;60.50
74968;SHT30;63523;51.880;12.630;2023-08-21T08:30:27;25.74;62.21
74968;SHT30;63523;51.880;12.630;2023-08-21T08:32:53;25.89;60.85
74968;SHT30;63523;51.880;12.630;2023-08-21T08:35:18;26.04;59.64
74968;SHT30;63523;51.880;12.630;2023-08-21T08:37:43;26.07;60.67
74968;SHT30;63523;51.880;12.630;2023-08-21T08:40:10;26.13;58.43
74968;SHT30;63523;51.880;12.630;2023-08-21T08:42:36;26.20;57.50
74968;SHT30;63523;51.880;12.630;2023-08-21T08:45:03;26.33;58.73
74968;SHT30;63523;51.880;12.630;2023-08-21T08:47:31;26.47;55.89
74968;SHT30;63523;51.880;12.630;2023-08-21T08:49:57;26.64;55.40
74968;SHT30;63523;51.880;12.630;2023-08-21T08:52:26;26.75;54.77
74968;SHT30;63523;51.880;12.630;2023-08-21T08:54:52;26.76;55.77
74968;SHT30;63523;51.880;12.630;2023-08-21T08:57:17;26.76;53.31
74968;SHT30;63523;51.880;12.630;2023-08-21T08:59:42;26.73;53.77
74968;SHT30;63523;51.880;12.630;2023-08-21T09:02:08;26.88;51.93
74968;SHT30;63523;51.880;12.630;2023-08-21T09:04:33;27.02;52.98
74968;SHT30;63523;51.880;12.630;2023-08-21T09:07:12;27.14;52.31
74968;SHT30;63523;51.880;12.630;2023-08-21T09:09:41;27.20;53.36
74968;SHT30;63523;51.880;12.630;2023-08-21T09:12:11;27.37;51.35
74968;SHT30;63523;51.880;12.630;2023-08-21T09:14:41;27.61;49.81
74968;SHT30;63523;51.880;12.630;2023-08-21T09:17:06;27.75;47.85
74968;SHT30;63523;51.880;12.630;2023-08-21T09:19:32;27.77;47.62
74968;SHT30;63523;51.880;12.630;2023-08-21T09:21:57;27.73;48.86
74968;SHT30;63523;51.880;12.630;2023-08-21T09:24:23;27.65;48.87
74968;SHT30;63523;51.880;12.630;2023-08-21T09:26:49;27.68;48.22
74968;SHT30;63523;51.880;12.630;2023-08-21T09:29:15;27.77;49.14
74968;SHT30;63523;51.880;12.630;2023-08-21T09:31:40;27.98;47.43
74968;SHT30;63523;51.880;12.630;2023-08-21T09:34:05;28.05;45.30
74968;SHT30;63523;51.880;12.630;2023-08-21T09:36:32;28.09;45.93
74968;SHT30;63523;51.880;12.630;2023-08-21T09:38:57;28.17;44.63
74968;SHT30;63523;51.880;12.630;2023-08-21T09:41:25;28.20;44.99
74968;SHT30;63523;51.880;12.630;2023-08-21T09:43:51;28.30;46.09
74968;SHT30;63523;51.880;12.630;2023-08-21T09:46:23;28.36;45.08
74968;SHT30;63523;51.880;12.630;2023-08-21T09:48:49;28.44;44.25
74968;SHT30;63523;51.880;12.630;2023-08-21T09:51:14;28.40;43.80
74968;SHT30;63523;51.880;12.630;2023-08-21T09:53:40;28.47;45.01
74968;SHT30;63523;51.880;12.630;2023-08-21T09:56:06;28.41;43.98
74968;SHT30;63523;51.880;12.630;2023-08-21T09:58:31;28.40;44.78
74968;SHT30;63523;51.880;12.630;2023-08-21T10:00:57;28.37;42.44
74968;SHT30;63523;51.880;12.630;2023-08-21T10:03:23;28.17;43.89
74968;SHT30;63523;51.880;12.630;2023-08-21T10:05:49;28.10;45.67
74968;SHT30;63523;51.880;12.630;2023-08-21T10:08:20;28.23;44.47
74968;SHT30;63523;51.880;12.630;2023-08-21T10:10:46;28.45;44.64
74968;SHT30;63523;51.880;12.630;2023-08-21T10:13:11;28.62;44.06
74968;SHT30;63523;51.880;12.630;2023-08-21T10:15:37;28.89;42.70
74968;SHT30;63523;51.880;12.630;2023-08-21T10:18:23;29.31;42.88
74968;SHT30;63523;51.880;12.630;2023-08-21T10:20:50;29.71;42.02
74968;SHT30;63523;51.880;12.630;2023-08-21T10:23:29;30.13;43.02
74968;SHT30;63523;51.880;12.630;2023-08-21T10:25:59;30.37;41.05
74968;SHT30;63523;51.880;12.630;2023-08-21T10:28:25;30.39;40.61
74968;SHT30;63523;51.880;12.630;2023-08-21T10:31:34;30.41;40.80
74968;SHT30;63523;51.880;12.630;2023-08-21T10:34:02;30.26;40.58
74968;SHT30;63523;51.880;12.630;2023-08-21T10:37:02;29.89;42.51
74968;SHT30;63523;51.880;12.630;2023-08-21T10:39:27;29.49;42.36
74968;SHT30;63523;51.880;12.630;2023-08-21T10:42:04;29.09;42.30
74968;SHT30;63523;51.880;12.630;2023-08-21T10:44:45;28.79;43.48
74968;SHT30;63523;51.880;12.630;2023-08-21T10:49:40;28.62;46.39
74968;SHT30;63523;51.880;12.630;2023-08-21T10:52:07;29.05;46.12
74968;SHT30;63523;51.880;12.630;2023-08-21T10:54:44;29.65;43.94
74968;SHT30;63523;51.880;12.630;2023-08-21T10:57:09;30.08;44.28
74968;SHT30;63523;51.880;12.630;2023-08-21T10:59:35;30.57;41.88
74968;SHT30;63523;51.880;12.630;2023-08-21T11:02:00;30.65;40.80
74968;SHT30;63523;51.880;12.630;2023-08-21T11:04:25;30.98;39.65
74968;SHT30;63523;51.880;12.630;2023-08-21T11:06:51;31.22;40.19
74968;SHT30;63523;51.880;12.630;2023-08-21T11:09:17;31.32;40.49
74968;SHT30;63523;51.880;12.630;2023-08-21T11:11:43;31.19;38.57
74968;SHT30;63523;51.880;12.630;2023-08-21T11:14:09;31.11;39.94
74968;SHT30;63523;51.880;12.630;2023-08-21T11:16:34;31.29;38.84
74968;SHT30;63523;51.880;12.630;2023-08-21T11:19:03;31.39;38.60
74968;SHT30;63523;51.880;12.630;2023-08-21T11:21:29;31.13;39.69
74968;SHT30;63523;51.880;12.630;2023-08-21T11:23:54;30.74;40.24
74968;SHT30;63523;51.880;12.630;2023-08-21T11:26:21;30.68;40.18
74968;SHT30;63523;51.880;12.630;2023-08-21T11:28:46;30.67;40.55
74968;SHT30;63523;51.880;12.630;2023-08-21T11:31:12;30.72;40.74
74968;SHT30;63523;51.880;12.630;2023-08-21T11:33:37;30.54;40.81
74968;SHT30;63523;51.880;12.630;2023-08-21T11:36:04;30.63;41.46
74968;SHT30;63523;51.880;12.630;2023-08-21T11:38:29;30.33;41.66
74968;SHT30;63523;51.880;12.630;2023-08-21T11:40:58;30.22;42.17
74968;SHT30;63523;51.880;12.630;2023-08-21T11:43:37;30.09;42.88
74968;SHT30;63523;51.880;12.630;2023-08-21T11:46:04;29.98;42.70
74968;SHT30;63523;51.880;12.630;2023-08-21T11:48:29;29.93;42.19
74968;SHT30;63523;51.880;12.630;2023-08-21T11:50:55;29.82;43.19
74968;SHT30;63523;51.880;12.630;2023-08-21T11:56:02;29.72;44.45
74968;SHT30;63523;51.880;12.630;2023-08-21T11:58:28;29.72;43.30
74968;SHT30;63523;51.880;12.630;2023-08-21T12:00:54;29.77;43.67
74968;SHT30;63523;51.880;12.630;2023-08-21T12:03:19;29.75;42.86
74968;SHT30;63523;51.880;12.630;2023-08-21T12:05:45;29.81;42.01
74968;SHT30;63523;51.880;12.630;2023-08-21T12:08:10;29.84;41.70
74968;SHT30;63523;51.880;12.630;2023-08-21T12:10:36;29.90;41.84
74968;SHT30;63523;51.880;12.630;2023-08-21T12:13:02;29.82;42.47
74968;SHT30;63523;51.880;12.630;2023-08-21T12:15:27;29.81;42.36
74968;SHT30;63523;51.880;12.630;2023-08-21T12:17:53;29.81;42.73
74968;SHT30;63523;51.880;12.630;2023-08-21T12:20:18;29.57;43.31
74968;SHT30;63523;51.880;12.630;2023-08-21T12:22:43;29.58;43.51
74968;SHT30;63523;51.880;12.630;2023-08-21T12:25:09;29.67;43.92
74968;SHT30;63523;51.880;12.630;2023-08-21T12:27:35;29.70;44.15
74968;SHT30;63523;51.880;12.630;2023-08-21T12:30:01;29.71;41.31
74968;SHT30;63523;51.880;12.630;2023-08-21T12:32:26;29.61;41.98
74968;SHT30;63523;51.880;12.630;2023-08-21T12:34:52;29.49;42.17
74968;SHT30;63523;51.880;12.630;2023-08-21T12:37:17;29.37;42.69
74968;SHT30;63523;51.880;12.630;2023-08-21T12:39:42;29.24;43.22
74968;SHT30;63523;51.880;12.630;2023-08-21T12:42:08;29.17;43.98
74968;SHT30;63523;51.880;12.630;2023-08-21T12:44:36;29.10;44.62
74968;SHT30;63523;51.880;12.630;2023-08-21T12:47:02;29.07;44.11
74968;SHT30;63523;51.880;12.630;2023-08-21T12:49:27;29.13;43.72
74968;SHT30;63523;51.880;12.630;2023-08-21T12:51:53;29.13;43.78
74968;SHT30;63523;51.880;12.630;2023-08-21T12:54:18;29.06;46.32
74968;SHT30;63523;51.880;12.630;2023-08-21T12:56:44;28.99;46.03
74968;SHT30;63523;51.880;12.630;2023-08-21T12:59:09;29.06;44.12
74968;SHT30;63523;51.880;12.630;2023-08-21T13:01:34;28.96;45.68
74968;SHT30;63523;51.880;12.630;2023-08-21T13:04:01;28.98;43.49
74968;SHT30;63523;51.880;12.630;2023-08-21T13:06:26;29.12;44.32
74968;SHT30;63523;51.880;12.630;2023-08-21T13:08:52;29.00;42.74
74968;SHT30;63523;51.880;12.630;2023-08-21T13:11:17;28.88;43.79
74968;SHT30;63523;51.880;12.630;2023-08-21T13:13:43;28.82;44.83
74968;SHT30;63523;51.880;12.630;2023-08-21T13:16:08;28.83;44.68
74968;SHT30;63523;51.880;12.630;2023-08-21T13:18:33;28.85;44.76
74968;SHT30;63523;51.880;12.630;2023-08-21T13:20:58;28.99;44.30
74968;SHT30;63523;51.880;12.630;2023-08-21T13:23:24;29.10;44.02
74968;SHT30;63523;51.880;12.630;2023-08-21T13:25:49;29.37;42.82
74968;SHT30;63523;51.880;12.630;2023-08-21T13:28:15;29.61;44.14
74968;SHT30;63523;51.880;12.630;2023-08-21T13:30:40;29.88;41.77
74968;SHT30;63523;51.880;12.630;2023-08-21T13:33:06;29.86;41.86
74968;SHT30;63523;51.880;12.630;2023-08-21T13:35:32;29.88;41.74
74968;SHT30;63523;51.880;12.630;2023-08-21T13:37:57;29.99;41.74
74968;SHT30;63523;51.880;12.630;2023-08-21T13:40:24;30.01;42.18
74968;SHT30;63523;51.880;12.630;2023-08-21T13:42:49;30.10;41.19
74968;SHT30;63523;51.880;12.630;2023-08-21T13:45:17;30.06;41.79
74968;SHT30;63523;51.880;12.630;2023-08-21T13:47:44;30.01;42.12
74968;SHT30;63523;51.880;12.630;2023-08-21T13:50:11;29.98;42.31
74968;SHT30;63523;51.880;12.630;2023-08-21T13:52:36;29.93;43.83
74968;SHT30;63523;51.880;12.630;2023-08-21T13:55:03;29.86;42.21
74968;SHT30;63523;51.880;12.630;2023-08-21T13:57:29;29.68;43.18
74968;SHT30;63523;51.880;12.630;2023-08-21T13:59:55;29.61;43.36
74968;SHT30;63523;51.880;12.630;2023-08-21T14:02:20;29.57;41.81
74968;SHT30;63523;51.880;12.630;2023-08-21T14:04:46;29.46;43.03
74968;SHT30;63523;51.880;12.630;2023-08-21T14:07:11;29.29;43.74
74968;SHT30;63523;51.880;12.630;2023-08-21T14:09:37;29.12;44.29
74968;SHT30;63523;51.880;12.630;2023-08-21T14:12:03;28.99;44.61
74968;SHT30;63523;51.880;12.630;2023-08-21T14:14:28;28.95;44.65
74968;SHT30;63523;51.880;12.630;2023-08-21T14:16:55;28.94;44.47
74968;SHT30;63523;51.880;12.630;2023-08-21T14:19:20;28.94;45.81
74968;SHT30;63523;51.880;12.630;2023-08-21T14:21:45;28.91;45.34
74968;SHT30;63523;51.880;12.630;2023-08-21T14:24:11;29.06;46.39
74968;SHT30;63523;51.880;12.630;2023-08-21T14:26:36;29.19;47.39
74968;SHT30;63523;51.880;12.630;2023-08-21T14:29:01;29.31;44.49
74968;SHT30;63523;51.880;12.630;2023-08-21T14:31:27;29.43;44.97
74968;SHT30;63523;51.880;12.630;2023-08-21T14:33:52;29.44;43.98
74968;SHT30;63523;51.880;12.630;2023-08-21T14:36:18;29.47;43.74
74968;SHT30;63523;51.880;12.630;2023-08-21T14:38:44;29.41;44.14
74968;SHT30;63523;51.880;12.630;2023-08-21T14:41:10;29.27;45.60
74968;SHT30;63523;51.880;12.630;2023-08-21T14:43:35;29.17;43.98
74968;SHT30;63523;51.880;12.630;2023-08-21T14:46:00;29.00;43.40
74968;SHT30;63523;51.880;12.630;2023-08-21T14:48:26;28.94;45.14
74968;SHT30;63523;51.880;12.630;2023-08-21T14:50:51;28.87;44.30
74968;SHT30;63523;51.880;12.630;2023-08-21T14:53:16;28.76;45.52
74968;SHT30;63523;51.880;12.630;2023-08-21T14:55:42;28.72;45.12
74968;SHT30;63523;51.880;12.630;2023-08-21T14:58:07;28.67;46.79
74968;SHT30;63523;51.880;12.630;2023-08-21T15:00:34;28.68;45.39
74968;SHT30;63523;51.880;12.630;2023-08-21T15:03:00;28.65;46.80
74968;SHT30;63523;51.880;12.630;2023-08-21T15:05:27;28.58;45.68
74968;SHT30;63523;51.880;12.630;2023-08-21T15:07:52;28.36;46.85
74968;SHT30;63523;51.880;12.630;2023-08-21T15:10:20;28.17;47.32
74968;SHT30;63523;51.880;12.630;2023-08-21T15:12:45;28.16;47.92
74968;SHT30;63523;51.880;12.630;2023-08-21T15:15:10;28.18;48.25